createdAt,value
2018-11-23T00:02:08.273Z,40.87
2018-11-23T00:04:40.092Z,40.70
2018-11-23T00:07:11.922Z,38.97
2018-11-23T00:09:45.059Z,42.77
2018-11-23T00:12:17.517Z,38.30
2018-11-23T00:14:48.147Z,41.93
2018-11-23T00:17:18.737Z,40.27
2018-11-23T00:19:49.395Z,39.23
2018-11-23T00:22:21.933Z,41.37
2018-11-23T00:24:53.754Z,41.23
2018-11-23T00:27:26.055Z,41.10
2018-11-23T00:29:57.166Z,45.83
2018-11-23T00:32:31.854Z,40.10
2018-11-23T00:35:03.349Z,42.33
2018-11-23T00:37:34.454Z,38.87
2018-11-23T00:40:29.460Z,36.23
2018-11-23T00:43:01.838Z,37.67
2018-11-23T00:45:42.793Z,40.77
2018-11-23T00:48:08.205Z,44.53
2018-11-23T00:50:41.093Z,46.17
2018-11-23T00:53:13.197Z,41.63
2018-11-23T00:58:37.051Z,43.90
2018-11-23T01:01:08.189Z,49.10
2018-11-23T01:03:40.161Z,47.60
2018-11-23T01:06:14.479Z,50.40
2018-11-23T01:08:46.156Z,49.10
2018-11-23T01:11:17.229Z,49.53
2018-11-23T01:13:50.970Z,54.20
2018-11-23T01:16:29.035Z,45.50
2018-11-23T01:19:03.153Z,53.60
2018-11-23T01:21:36.863Z,49.13
2018-11-23T01:24:08.007Z,53.60
2018-11-23T01:26:41.449Z,54.07
2018-11-23T01:29:13.338Z,49.63
2018-11-23T01:31:44.032Z,46.37
2018-11-23T01:34:17.290Z,50.63
2018-11-23T01:36:50.174Z,47.67
2018-11-23T01:39:25.521Z,55.00
2018-11-23T01:41:57.382Z,56.33
2018-11-23T01:44:30.505Z,52.00
2018-11-23T01:47:01.042Z,49.97
2018-11-23T01:49:41.082Z,48.00
2018-11-23T01:52:14.595Z,54.53
2018-11-23T01:54:46.374Z,50.20
2018-11-23T01:57:17.463Z,55.47
2018-11-23T01:59:51.132Z,50.07
2018-11-23T02:02:23.485Z,47.50
2018-11-23T02:04:54.241Z,47.67
2018-11-23T02:07:27.281Z,51.80
2018-11-23T02:10:01.286Z,53.93
2018-11-23T02:12:34.631Z,59.90
2018-11-23T02:15:10.709Z,55.97
2018-11-23T02:17:41.402Z,50.50
2018-11-23T02:20:24.891Z,48.20
2018-11-23T02:23:03.694Z,50.77
2018-11-23T02:25:39.158Z,51.67
2018-11-23T02:28:11.534Z,49.70
2018-11-23T02:30:44.380Z,55.23
2018-11-23T02:33:17.549Z,54.53
2018-11-23T02:35:52.818Z,52.20
2018-11-23T02:38:23.772Z,50.73
2018-11-23T02:40:57.470Z,48.20
2018-11-23T02:43:30.845Z,47.67
2018-11-23T02:46:07.816Z,46.13
2018-11-23T02:48:39.769Z,44.53
2018-11-23T02:51:10.726Z,47.43
2018-11-23T02:53:43.539Z,44.80
2018-11-23T02:56:14.782Z,46.60
2018-11-23T02:58:47.667Z,46.33
2018-11-23T03:01:20.748Z,44.37
2018-11-23T03:03:53.381Z,57.80
2018-11-23T03:06:24.706Z,47.10
2018-11-23T03:08:55.565Z,45.70
2018-11-23T03:11:28.546Z,45.30
2018-11-23T03:13:59.526Z,44.83
2018-11-23T03:16:31.521Z,41.93
2018-11-23T03:19:02.721Z,49.17
2018-11-23T03:21:33.905Z,51.60
2018-11-23T03:24:07.085Z,47.33
2018-11-23T03:26:39.178Z,46.00
2018-11-23T03:29:11.798Z,55.73
2018-11-23T03:31:45.226Z,58.63
2018-11-23T03:34:16.913Z,59.13
2018-11-23T03:36:47.438Z,56.17
2018-11-23T03:39:23.707Z,57.53
2018-11-23T03:41:56.848Z,63.30
2018-11-23T03:44:30.773Z,58.97
2018-11-23T03:47:03.234Z,68.33
2018-11-23T03:49:33.565Z,66.50
2018-11-23T03:52:04.415Z,81.57
2018-11-23T03:54:38.125Z,78.93
2018-11-23T03:57:09.224Z,73.37
2018-11-23T03:59:40.859Z,78.43
2018-11-23T04:02:12.133Z,79.83
2018-11-23T04:04:44.997Z,81.17
2018-11-23T04:07:18.049Z,78.13
2018-11-23T04:09:51.443Z,83.47
2018-11-23T04:12:21.961Z,78.40
2018-11-23T04:14:54.806Z,73.17
2018-11-23T04:17:30.939Z,83.80
2018-11-23T04:20:03.155Z,72.30
2018-11-23T04:22:35.120Z,82.63
2018-11-23T04:25:08.509Z,73.17
2018-11-23T04:27:39.594Z,86.37
2018-11-23T04:30:20.504Z,75.40
2018-11-23T04:33:03.404Z,81.43
2018-11-23T04:35:36.779Z,89.17
2018-11-23T04:38:08.113Z,92.07
2018-11-23T04:40:56.731Z,81.20
2018-11-23T04:43:29.136Z,72.90
2018-11-23T04:46:02.004Z,75.37
2018-11-23T04:48:33.142Z,90.43
2018-11-23T04:51:06.129Z,78.87
2018-11-23T04:53:38.293Z,90.43
2018-11-23T04:56:09.179Z,83.63
2018-11-23T04:58:40.323Z,91.73
2018-11-23T05:01:12.220Z,87.37
2018-11-23T05:03:44.285Z,92.97
2018-11-23T05:06:27.351Z,95.70
2018-11-23T05:09:08.528Z,90.80
2018-11-23T05:11:39.326Z,92.83
2018-11-23T05:14:11.367Z,87.13
2018-11-23T05:16:43.469Z,92.43
2018-11-23T05:19:15.280Z,92.43
2018-11-23T05:21:47.595Z,92.70
2018-11-23T05:24:20.167Z,88.97
2018-11-23T05:26:51.128Z,111.63
2018-11-23T05:29:24.738Z,106.27
2018-11-23T05:31:57.035Z,96.83
2018-11-23T05:34:28.447Z,88.53
2018-11-23T05:37:01.178Z,95.53
2018-11-23T05:39:32.568Z,83.93
2018-11-23T05:42:05.348Z,85.67
2018-11-23T05:44:36.237Z,96.03
2018-11-23T05:47:08.618Z,82.97
2018-11-23T05:49:39.298Z,93.47
2018-11-23T05:52:11.358Z,81.20
2018-11-23T05:54:43.471Z,89.27
2018-11-23T05:57:14.372Z,92.50
2018-11-23T05:59:46.487Z,80.13
2018-11-23T06:02:17.339Z,69.47
2018-11-23T06:04:50.605Z,89.60
2018-11-23T06:07:23.895Z,76.03
2018-11-23T06:09:56.646Z,85.17
2018-11-23T06:12:27.325Z,78.27
2018-11-23T06:14:58.004Z,90.17
2018-11-23T06:17:30.646Z,89.10
2018-11-23T06:20:01.822Z,106.20
2018-11-23T06:22:34.815Z,90.70
2018-11-23T06:25:13.269Z,91.93
2018-11-23T06:27:57.280Z,103.13
2018-11-23T06:30:30.074Z,98.40
2018-11-23T06:33:11.736Z,89.87
2018-11-23T06:35:55.049Z,82.80
2018-11-23T06:38:27.677Z,110.97
2018-11-23T06:41:01.866Z,105.93
2018-11-23T06:43:34.614Z,110.30
2018-11-23T06:46:10.068Z,117.37
2018-11-23T06:48:40.707Z,83.73
2018-11-23T06:51:12.670Z,98.20
2018-11-23T06:53:44.618Z,99.07
2018-11-23T06:56:18.401Z,102.40
2018-11-23T06:58:51.763Z,101.30
2018-11-23T07:01:24.493Z,103.03
2018-11-23T07:03:57.480Z,97.17
2018-11-23T07:06:30.590Z,100.33
2018-11-23T07:09:01.612Z,92.87
2018-11-23T07:11:32.380Z,104.03
2018-11-23T07:14:07.872Z,111.57
2018-11-23T07:16:38.828Z,114.90
2018-11-23T07:19:09.398Z,120.20
2018-11-23T07:21:41.744Z,97.07
2018-11-23T07:24:15.813Z,110.70
2018-11-23T07:26:48.570Z,108.83
2018-11-23T07:29:19.610Z,112.50
2018-11-23T07:31:50.317Z,102.27
2018-11-23T07:34:23.882Z,115.20
2018-11-23T07:36:57.157Z,113.70
2018-11-23T07:39:40.881Z,131.23
2018-11-23T07:42:23.614Z,106.27
2018-11-23T07:44:54.707Z,102.80
2018-11-23T07:47:27.771Z,110.83
2018-11-23T07:50:01.277Z,109.60
2018-11-23T07:52:31.620Z,115.00
2018-11-23T07:55:03.460Z,135.93
2018-11-23T07:57:35.801Z,106.17
2018-11-23T08:00:13.406Z,116.37
2018-11-23T08:02:56.443Z,105.70
2018-11-23T08:05:28.541Z,100.73
2018-11-23T08:08:02.076Z,133.87
2018-11-23T08:10:36.749Z,118.10
2018-11-23T08:13:08.878Z,105.87
2018-11-23T08:15:42.330Z,98.47
2018-11-23T08:18:12.992Z,119.07
2018-11-23T08:20:46.599Z,108.80
2018-11-23T08:23:22.059Z,114.93
2018-11-23T08:25:55.209Z,105.17
2018-11-23T08:28:26.082Z,106.10
2018-11-23T08:30:59.174Z,105.00
2018-11-23T08:33:29.522Z,107.20
2018-11-23T08:35:59.824Z,97.87
2018-11-23T08:38:30.092Z,105.33
2018-11-23T08:41:03.849Z,88.63
2018-11-23T08:43:37.291Z,102.90
2018-11-23T08:46:08.455Z,103.10
2018-11-23T08:48:40.142Z,96.20
2018-11-23T08:51:12.422Z,106.27
2018-11-23T08:53:44.665Z,91.80
2018-11-23T08:56:15.248Z,94.53
2018-11-23T08:58:47.555Z,98.73
2018-11-23T09:01:17.948Z,102.13
2018-11-23T09:03:48.498Z,98.17
2018-11-23T09:06:19.076Z,101.63
2018-11-23T09:08:52.453Z,89.97
2018-11-23T09:11:25.290Z,93.20
2018-11-23T09:13:56.504Z,88.20
2018-11-23T09:16:29.494Z,97.17
2018-11-23T09:19:00.926Z,89.07
2018-11-23T09:21:34.085Z,98.33
2018-11-23T09:24:06.542Z,86.47
2018-11-23T09:26:39.213Z,83.63
2018-11-23T09:29:13.555Z,93.13
2018-11-23T09:31:46.166Z,88.30
2018-11-23T09:34:18.593Z,97.70
2018-11-23T09:36:50.395Z,91.70
2018-11-23T09:39:21.420Z,82.17
2018-11-23T09:41:53.515Z,90.60
2018-11-23T09:44:24.327Z,94.47
2018-11-23T09:46:55.715Z,82.63
2018-11-23T09:49:28.165Z,87.50
2018-11-23T09:52:01.420Z,81.73
2018-11-23T09:54:34.545Z,86.43
2018-11-23T09:57:07.759Z,82.30
2018-11-23T09:59:38.528Z,89.20
2018-11-23T10:02:09.483Z,85.63
2018-11-23T10:04:42.354Z,87.63
2018-11-23T10:07:13.051Z,87.40
2018-11-23T10:09:48.536Z,87.07
2018-11-23T10:12:19.464Z,88.47
2018-11-23T10:14:52.740Z,91.00
2018-11-23T10:17:23.651Z,93.87
2018-11-23T10:19:58.181Z,74.30
2018-11-23T10:22:27.894Z,82.87
2018-11-23T10:25:00.749Z,82.10
2018-11-23T10:27:31.519Z,74.53
2018-11-23T10:30:02.674Z,80.13
2018-11-23T10:32:34.617Z,90.60
2018-11-23T10:35:07.086Z,78.53
2018-11-23T10:37:39.302Z,83.17
2018-11-23T10:40:20.858Z,88.53
2018-11-23T10:43:03.286Z,82.27
2018-11-23T10:45:38.162Z,88.20
2018-11-23T10:48:09.666Z,78.37
2018-11-23T10:50:42.091Z,81.43
2018-11-23T10:53:15.341Z,87.60
2018-11-23T10:55:47.670Z,82.10
2018-11-23T10:58:20.630Z,83.17
2018-11-23T11:00:56.507Z,82.00
2018-11-23T11:03:34.073Z,70.63
2018-11-23T11:06:13.204Z,80.37
2018-11-23T11:08:45.464Z,81.40
2018-11-23T11:11:18.001Z,77.83
2018-11-23T11:13:49.990Z,85.50
2018-11-23T11:16:22.038Z,73.87
2018-11-23T11:18:54.162Z,79.17
2018-11-23T11:21:26.714Z,71.97
2018-11-23T11:23:58.013Z,74.23
2018-11-23T11:26:31.060Z,79.13
2018-11-23T11:29:07.651Z,74.80
2018-11-23T11:31:41.187Z,72.13
2018-11-23T11:34:14.989Z,86.83
2018-11-23T11:36:47.832Z,81.27
2018-11-23T11:39:24.857Z,79.33
2018-11-23T11:41:57.160Z,90.70
2018-11-23T11:44:30.171Z,72.00
2018-11-23T11:47:02.125Z,72.53
2018-11-23T11:49:35.212Z,71.73
2018-11-23T11:52:08.001Z,86.17
2018-11-23T11:54:40.851Z,76.57
2018-11-23T11:57:11.887Z,74.20
2018-11-23T11:59:44.132Z,69.63
2018-11-23T12:02:14.757Z,74.77
2018-11-23T12:04:45.248Z,66.30
2018-11-23T12:07:17.807Z,69.50
2018-11-23T12:09:52.945Z,70.57
2018-11-23T12:12:26.186Z,70.40
2018-11-23T12:14:56.873Z,66.47
2018-11-23T12:17:28.818Z,70.53
2018-11-23T12:20:07.459Z,65.33
2018-11-23T12:22:41.571Z,62.00
2018-11-23T12:25:12.441Z,62.33
2018-11-23T12:27:58.242Z,71.07
2018-11-23T12:30:35.837Z,59.17
2018-11-23T12:33:09.571Z,59.47
2018-11-23T12:35:41.931Z,56.83
2018-11-23T12:38:15.091Z,60.63
2018-11-23T12:40:47.008Z,58.77
2018-11-23T12:43:18.304Z,56.70
2018-11-23T12:45:51.163Z,56.67
2018-11-23T12:48:21.974Z,68.80
2018-11-23T12:50:59.443Z,66.67
2018-11-23T12:53:30.997Z,55.83
2018-11-23T12:56:04.788Z,59.60
2018-11-23T12:58:41.112Z,59.07
2018-11-23T13:01:12.485Z,55.40
2018-11-23T13:03:45.572Z,58.23
2018-11-23T13:06:19.357Z,54.40
2018-11-23T13:08:53.882Z,60.53
2018-11-23T13:11:37.682Z,56.53
2018-11-23T13:14:08.974Z,57.67
2018-11-23T13:16:41.348Z,53.17
2018-11-23T13:19:11.873Z,59.67
2018-11-23T13:21:42.299Z,52.13
2018-11-23T13:24:16.421Z,48.37
2018-11-23T13:26:48.322Z,51.40
2018-11-23T13:29:20.756Z,58.70
2018-11-23T13:31:52.335Z,49.13
2018-11-23T13:34:26.805Z,48.23
2018-11-23T13:36:58.186Z,47.40
2018-11-23T13:39:32.127Z,52.30
2018-11-23T13:42:02.909Z,45.93
2018-11-23T13:44:35.612Z,52.20
2018-11-23T13:47:07.500Z,38.90
2018-11-23T13:49:39.562Z,44.10
2018-11-23T13:52:15.554Z,42.13
2018-11-23T13:54:46.457Z,41.73
2018-11-23T13:57:20.676Z,41.97
2018-11-23T13:59:53.149Z,38.53
2018-11-23T14:02:32.676Z,42.10
2018-11-23T14:05:07.719Z,64.40
2018-11-23T14:07:38.317Z,40.33
2018-11-23T14:10:11.705Z,41.37
2018-11-23T14:12:49.566Z,41.33
2018-11-23T14:15:32.269Z,43.87
2018-11-23T14:18:04.389Z,45.87
2018-11-23T14:20:38.036Z,43.10
2018-11-23T14:23:23.216Z,49.03
2018-11-23T14:26:03.150Z,39.97
2018-11-23T14:28:35.530Z,50.07
2018-11-23T14:31:06.328Z,61.57
2018-11-23T14:33:36.921Z,54.17
2018-11-23T14:36:09.595Z,52.90
2018-11-23T14:38:44.635Z,49.27
2018-11-23T14:41:15.775Z,45.53
2018-11-23T14:43:47.449Z,50.33
2018-11-23T14:46:21.417Z,51.53
2018-11-23T14:48:54.050Z,49.70
2018-11-23T14:51:26.529Z,49.17
2018-11-23T14:54:01.059Z,56.43
2018-11-23T14:56:33.922Z,44.43
2018-11-23T14:59:05.235Z,46.33
2018-11-23T15:01:39.372Z,45.47
2018-11-23T15:04:10.010Z,41.47
2018-11-23T15:06:41.654Z,46.60
2018-11-23T15:09:12.480Z,43.17
2018-11-23T15:17:59.774Z,43.67
2018-11-23T15:20:38.552Z,43.23
2018-11-23T15:23:10.811Z,43.47
2018-11-23T15:25:42.413Z,39.70
2018-11-23T15:28:15.817Z,42.77
2018-11-23T15:30:50.336Z,44.73
2018-11-23T15:33:22.075Z,50.53
2018-11-23T15:35:53.064Z,47.30
2018-11-23T15:38:26.616Z,53.00
2018-11-23T15:41:05.847Z,49.40
2018-11-23T15:43:39.027Z,59.27
2018-11-23T15:46:09.667Z,53.53
2018-11-23T15:48:42.531Z,49.00
2018-11-23T15:51:13.617Z,63.23
2018-11-23T15:53:46.062Z,47.10
2018-11-23T15:56:19.033Z,46.33
2018-11-23T15:58:50.137Z,45.73
2018-11-23T16:01:20.902Z,43.73
2018-11-23T16:03:54.317Z,42.33
2018-11-23T16:06:27.017Z,40.33
2018-11-23T16:09:05.384Z,42.93
2018-11-23T16:11:40.539Z,39.07
2018-11-23T16:14:15.850Z,44.20
2018-11-23T16:16:49.358Z,44.90
2018-11-23T16:19:21.167Z,37.93
2018-11-23T16:21:53.190Z,35.90
2018-11-23T16:24:23.838Z,45.73
2018-11-23T16:26:54.409Z,38.33
2018-11-23T16:29:27.271Z,37.03
2018-11-23T16:32:01.200Z,49.13
2018-11-23T16:34:32.139Z,42.83
2018-11-23T16:37:04.077Z,45.47
2018-11-23T16:39:35.017Z,46.70
2018-11-23T16:42:08.509Z,44.90
2018-11-23T16:44:41.481Z,47.13
2018-11-23T16:47:12.424Z,43.67
2018-11-23T16:49:45.419Z,53.53
2018-11-23T16:52:18.301Z,43.33
2018-11-23T16:54:51.214Z,38.13
2018-11-23T16:57:22.569Z,46.23
2018-11-23T16:59:55.689Z,41.57
2018-11-23T17:02:26.361Z,41.63
2018-11-23T17:04:59.268Z,43.77
2018-11-23T17:07:30.083Z,46.63
2018-11-23T17:10:03.829Z,43.27
2018-11-23T17:12:36.591Z,43.03
2018-11-23T17:15:11.752Z,43.47
2018-11-23T17:17:57.417Z,47.53
2018-11-23T17:20:30.070Z,39.30
2018-11-23T17:23:03.641Z,37.13
2018-11-23T17:25:36.730Z,50.20
2018-11-23T17:28:15.230Z,45.57
2018-11-23T17:30:48.257Z,53.40
2018-11-23T17:33:19.089Z,47.50
2018-11-23T17:35:49.946Z,49.87
2018-11-23T17:38:25.337Z,45.87
2018-11-23T17:40:59.292Z,51.20
2018-11-23T17:43:35.741Z,43.23
2018-11-23T17:46:09.096Z,48.97
2018-11-23T17:48:42.845Z,57.80
2018-11-23T17:51:15.772Z,48.27
2018-11-23T17:53:50.584Z,47.93
2018-11-23T17:56:21.598Z,52.93
2018-11-23T17:58:53.400Z,42.70
2018-11-23T18:01:24.018Z,42.87
2018-11-23T18:03:54.631Z,47.33
2018-11-23T18:06:28.170Z,51.33
2018-11-23T18:09:08.143Z,59.90
2018-11-23T18:11:40.245Z,50.77
2018-11-23T18:14:10.793Z,51.10
2018-11-23T18:16:46.415Z,52.40
2018-11-23T18:19:17.382Z,59.43
2018-11-23T18:21:50.859Z,64.27
2018-11-23T18:24:23.666Z,60.27
2018-11-23T18:26:56.930Z,63.03
2018-11-23T18:29:27.889Z,58.63
2018-11-23T18:32:00.916Z,61.60
2018-11-23T18:34:31.830Z,55.60
2018-11-23T18:37:04.827Z,60.27
2018-11-23T18:39:38.014Z,53.50
2018-11-23T18:42:09.088Z,57.33
2018-11-23T18:44:44.630Z,60.60
2018-11-23T18:47:15.099Z,61.83
2018-11-23T18:49:45.628Z,61.10
2018-11-23T18:52:15.870Z,68.60
2018-11-23T18:54:46.700Z,73.27
2018-11-23T18:57:19.875Z,62.40
2018-11-23T18:59:53.003Z,70.33
2018-11-23T19:02:32.406Z,69.00
2018-11-23T19:05:02.970Z,74.63
2018-11-23T19:07:33.825Z,69.03
2018-11-23T19:10:09.700Z,59.63
2018-11-23T19:12:54.788Z,71.47
2018-11-23T19:15:27.999Z,67.73
2018-11-23T19:18:12.348Z,71.90
2018-11-23T19:20:46.670Z,59.83
2018-11-23T19:23:18.744Z,78.20
2018-11-23T19:25:53.898Z,62.93
2018-11-23T19:28:30.288Z,66.07
2018-11-23T19:31:03.810Z,63.20
2018-11-23T19:33:37.159Z,70.10
2018-11-23T19:36:09.781Z,72.80
2018-11-23T19:38:48.959Z,67.27
2018-11-23T19:41:23.891Z,53.67
2018-11-23T19:43:56.519Z,62.77
2018-11-23T19:46:27.109Z,70.93
2018-11-23T19:49:01.905Z,59.03
2018-11-23T19:51:33.238Z,63.80
2018-11-23T19:54:05.494Z,68.70
2018-11-23T19:56:37.084Z,63.83
2018-11-23T19:59:08.204Z,58.93
2018-11-23T20:01:41.603Z,64.87
2018-11-23T20:04:12.257Z,59.63
2018-11-23T20:06:45.404Z,67.40
2018-11-23T20:09:19.314Z,56.57
2018-11-23T20:11:52.543Z,64.17
2018-11-23T20:14:25.591Z,66.33
2018-11-23T20:16:59.454Z,63.00
2018-11-23T20:19:30.313Z,55.80
2018-11-23T20:22:04.347Z,70.60
2018-11-23T20:24:36.188Z,60.97
2018-11-23T20:27:09.673Z,49.90
2018-11-23T20:29:44.134Z,66.50
2018-11-23T20:32:16.255Z,61.63
2018-11-23T20:34:47.032Z,48.77
2018-11-23T20:37:23.033Z,50.73
2018-11-23T20:39:56.233Z,47.60
2018-11-23T20:42:29.324Z,44.50
2018-11-23T20:45:02.938Z,52.37
2018-11-23T20:47:38.253Z,42.60
2018-11-23T20:50:10.970Z,43.13
2018-11-23T20:53:01.765Z,41.30
2018-11-23T20:55:37.111Z,46.90
2018-11-23T20:58:13.131Z,31.07
2018-11-23T21:00:49.862Z,37.17
2018-11-23T21:03:22.759Z,41.97
2018-11-23T21:05:53.798Z,35.50
2018-11-23T21:08:26.594Z,36.53
2018-11-23T21:10:57.597Z,43.00
2018-11-23T21:13:34.162Z,50.27
2018-11-23T21:16:06.624Z,40.63
2018-11-23T21:18:37.601Z,45.63
2018-11-23T21:21:10.024Z,42.80
2018-11-23T21:23:44.474Z,43.10
2018-11-23T21:26:16.394Z,41.43
2018-11-23T21:28:47.390Z,36.40
2018-11-23T21:31:20.797Z,34.77
2018-11-23T21:33:53.650Z,45.23
2018-11-23T21:36:24.551Z,35.00
2018-11-23T21:38:56.905Z,38.23
2018-11-23T21:41:29.801Z,44.90
2018-11-23T21:44:01.614Z,42.17
2018-11-23T21:46:36.369Z,38.80
2018-11-23T21:49:08.810Z,31.67
2018-11-23T21:51:40.210Z,33.93
2018-11-23T21:54:12.597Z,34.60
2018-11-23T21:56:47.448Z,31.97
2018-11-23T21:59:25.356Z,37.37
2018-11-23T22:02:02.792Z,24.60
2018-11-23T22:04:31.600Z,28.43
2018-11-23T22:07:06.776Z,23.83
2018-11-23T22:09:41.317Z,23.17
2018-11-23T22:12:20.424Z,23.90
2018-11-23T22:14:54.953Z,20.80
2018-11-23T22:17:28.710Z,18.60
2018-11-23T22:20:01.031Z,22.47
2018-11-23T22:22:31.722Z,25.07
2018-11-23T22:25:05.636Z,23.20
2018-11-23T22:27:38.710Z,24.60
2018-11-23T22:30:11.743Z,21.90
2018-11-23T22:32:53.741Z,22.60
2018-11-23T22:35:31.742Z,24.77
2018-11-23T22:38:03.925Z,26.60
2018-11-23T22:40:36.371Z,29.97
2018-11-23T22:43:07.700Z,32.20
2018-11-23T22:45:40.887Z,31.47
2018-11-23T22:48:12.904Z,39.13
2018-11-23T22:50:52.089Z,33.73
2018-11-23T22:53:28.596Z,37.63
2018-11-23T22:56:06.865Z,34.97
2018-11-23T22:58:37.633Z,33.50
2018-11-23T23:01:10.422Z,38.00
2018-11-23T23:03:43.752Z,37.93
2018-11-23T23:06:21.745Z,36.10
2018-11-23T23:08:53.735Z,39.10
2018-11-23T23:11:25.358Z,38.17
2018-11-23T23:13:57.620Z,30.47
2018-11-23T23:16:36.494Z,26.57
2018-11-23T23:19:10.396Z,29.03
2018-11-23T23:21:47.244Z,33.97
2018-11-23T23:24:21.795Z,36.30
2018-11-23T23:26:56.252Z,34.93
2018-11-23T23:29:30.476Z,30.03
2018-11-23T23:32:03.752Z,30.43
2018-11-23T23:34:40.708Z,27.83
2018-11-23T23:37:12.594Z,33.40
2018-11-23T23:39:48.687Z,27.77
2018-11-23T23:42:25.497Z,34.50
2018-11-23T23:45:00.871Z,46.37
2018-11-23T23:47:32.950Z,38.40
2018-11-23T23:50:08.689Z,30.80
2018-11-23T23:52:41.672Z,38.10
2018-11-23T23:55:25.718Z,38.47
2018-11-23T23:57:58.466Z,37.70
